Time;durP1;ratioP1;P1;durP2;ratioP2;P2;SDS_P1;SDS_P2;PMS_P1;PMS_P2;Temp;Humidity;BMP_temperature;BMP_pressure;BME280_temperature;BME280_humidity;BME280_pressure;Samples;Min_cycle;Max_cycle;Signal;HPM_P1;HPM_P2
2021/01/13 00:02:09;;;;;;;4.72;2.85;;;;;;;19.65;38.84;100151.28;5110838;28;20032;-75
2021/01/13 00:04:35;;;;;;;6.47;2.95;;;;;;;19.66;38.72;100152.13;5107865;28;20051;-74
2021/01/13 00:07:03;;;;;;;6.90;3.60;;;;;;;19.65;38.78;100151.28;5108381;28;20039;-75
2021/01/13 00:09:29;;;;;;;5.70;3.35;;;;;;;19.66;38.81;100147.75;5107139;28;20031;-76
2021/01/13 00:11:58;;;;;;;6.43;2.83;;;;;;;19.67;38.75;100145.97;5103739;28;20110;-74
2021/01/13 00:14:24;;;;;;;5.05;3.05;;;;;;;19.68;38.89;100147.69;5108389;28;20036;-76
2021/01/13 00:16:51;;;;;;;5.35;2.70;;;;;;;19.66;38.73;100142.50;5106725;28;20044;-74
2021/01/13 00:19:16;;;;;;;5.70;3.13;;;;;;;19.66;38.64;100149.50;5106128;28;20573;-72
2021/01/13 00:21:50;;;;;;;5.95;3.08;;;;;;;19.65;38.78;100148.66;5107057;28;20028;-76
2021/01/13 00:24:16;;;;;;;5.88;3.30;;;;;;;19.65;38.83;100150.38;5107072;28;20036;-74
2021/01/13 00:26:41;;;;;;;7.28;3.65;;;;;;;19.65;38.97;100151.28;5106370;28;20404;-76
2021/01/13 00:29:07;;;;;;;6.18;3.42;;;;;;;19.64;38.53;100149.53;5104465;28;20024;-74
2021/01/13 00:31:32;;;;;;;6.25;2.92;;;;;;;19.65;38.72;100153.91;5101196;27;20870;-73
2021/01/13 00:33:58;;;;;;;6.88;3.20;;;;;;;19.64;38.74;100146.91;5100998;28;20404;-73
2021/01/13 00:36:25;;;;;;;6.22;3.05;;;;;;;19.64;38.58;100154.78;5101073;28;20445;-74
2021/01/13 00:38:51;;;;;;;6.72;3.00;;;;;;;19.63;38.83;100153.91;5101631;28;20021;-76
2021/01/13 00:41:17;;;;;;;5.82;3.28;;;;;;;19.64;38.81;100157.41;5102247;28;20530;-74
2021/01/13 00:43:43;;;;;;;6.60;3.35;;;;;;;19.65;38.86;100161.78;5101227;28;20081;-74
2021/01/13 00:46:08;;;;;;;5.35;2.85;;;;;;;19.63;38.76;100161.78;5101779;28;20046;-76
2021/01/13 00:48:34;;;;;;;5.68;2.85;;;;;;;19.63;38.72;100168.84;5104580;28;20040;-75
2021/01/13 00:51:00;;;;;;;6.10;3.90;;;;;;;19.64;38.69;100170.56;5104759;28;20122;-75
2021/01/13 00:53:25;;;;;;;10.05;3.38;;;;;;;19.64;38.72;100173.19;5101878;28;20036;-73
2021/01/13 00:55:50;;;;;;;6.25;3.13;;;;;;;19.63;38.50;100166.19;5104593;28;20032;-72
2021/01/13 00:58:16;;;;;;;7.03;2.92;;;;;;;19.63;38.55;100156.53;5102119;28;20054;-75
2021/01/13 01:00:42;;;;;;;6.63;3.40;;;;;;;19.63;38.82;100161.78;5103154;28;20059;-75
2021/01/13 01:03:07;;;;;;;6.70;3.50;;;;;;;19.64;38.49;100160.06;5100190;28;20062;-76
2021/01/13 01:05:33;;;;;;;7.95;3.17;;;;;;;19.63;38.59;100156.53;5102088;28;20069;-77
2021/01/13 01:07:58;;;;;;;4.80;2.60;;;;;;;19.63;38.55;100163.56;5104464;28;20040;-74
2021/01/13 01:10:28;;;;;;;5.22;3.08;;;;;;;19.63;38.73;100160.94;5101109;28;20042;-73
2021/01/13 01:12:53;;;;;;;7.47;3.13;;;;;;;19.61;38.69;100161.00;5103471;28;20492;-75
2021/01/13 01:15:19;;;;;;;6.85;3.42;;;;;;;19.62;38.66;100152.19;5105330;28;20085;-74
2021/01/13 01:17:44;;;;;;;6.63;3.50;;;;;;;19.63;38.79;100160.94;5100971;28;20031;-74
2021/01/13 01:20:10;;;;;;;8.55;3.40;;;;;;;19.62;38.63;100157.44;5104205;28;20073;-75
2021/01/13 01:22:54;;;;;;;5.80;3.22;;;;;;;19.61;38.58;100155.72;5100879;28;20024;-76
2021/01/13 01:25:21;;;;;;;6.38;3.22;;;;;;;19.61;38.29;100152.22;5100099;28;20072;-72
2021/01/13 01:27:50;;;;;;;6.22;3.20;;;;;;;19.62;38.36;100157.44;5099073;28;20027;-72
2021/01/13 01:30:17;;;;;;;6.22;3.72;;;;;;;19.61;38.58;100154.84;5101524;28;20027;-72
2021/01/13 01:32:44;;;;;;;8.82;3.28;;;;;;;19.62;38.50;100156.59;5103253;28;20094;-76
2021/01/13 01:35:11;;;;;;;7.22;3.28;;;;;;;19.61;38.61;100157.47;5102167;28;20044;-75
2021/01/13 01:37:37;;;;;;;7.38;3.13;;;;;;;19.62;38.51;100165.31;5102903;28;20054;-73
2021/01/13 01:40:11;;;;;;;5.00;2.97;;;;;;;19.61;38.55;100168.88;5102979;28;20040;-74
2021/01/13 01:42:44;;;;;;;5.43;3.08;;;;;;;19.61;38.73;100165.38;5118250;27;20024;-75
2021/01/13 01:45:15;;;;;;;9.18;3.30;;;;;;;19.62;38.51;100169.72;5101809;28;20046;-78
2021/01/13 01:48:09;;;;;;;5.53;2.83;;;;;;;19.60;38.64;100172.41;5083734;28;20040;-72
2021/01/13 01:50:35;;;;;;;;;;;;;;;19.57;38.63;100172.44;5102919;28;20044;-76
2021/01/13 01:53:13;;;;;;;4.82;2.55;;;;;;;19.58;38.56;100182.06;5103616;28;20006;-74
2021/01/13 01:55:59;;;;;;;6.75;3.63;;;;;;;19.59;38.69;100180.28;5101192;28;20048;-76
2021/01/13 01:58:29;;;;;;;5.50;3.03;;;;;;;19.60;38.53;100180.28;5102606;28;20035;-74
2021/01/13 02:00:56;;;;;;;8.65;3.50;;;;;;;19.60;38.61;100184.66;5101784;28;20043;-76
2021/01/13 02:03:24;;;;;;;8.52;3.40;;;;;;;19.60;38.54;100182.91;5100141;28;20028;-76
2021/01/13 02:05:56;;;;;;;5.40;2.90;;;;;;;19.60;38.67;100179.41;5101375;28;20067;-74
2021/01/13 02:08:22;;;;;;;9.68;3.65;;;;;;;19.60;38.57;100182.03;5100083;28;20412;-75
2021/01/13 02:10:48;;;;;;;7.35;3.72;;;;;;;19.60;38.56;100185.53;5098836;28;20050;-74
2021/01/13 02:13:15;;;;;;;4.97;3.05;;;;;;;19.60;38.58;100184.66;5094639;28;20089;-74
2021/01/13 02:15:40;;;;;;;5.60;2.75;;;;;;;19.59;38.57;100194.31;5101821;28;20035;-77
2021/01/13 02:18:10;;;;;;;6.53;3.30;;;;;;;19.59;38.51;100188.19;5112857;28;20046;-76
2021/01/13 02:20:40;;;;;;;5.78;2.95;;;;;;;19.58;38.56;100197.84;5103329;28;20062;-73
2021/01/13 02:23:08;;;;;;;5.80;2.85;;;;;;;19.59;38.56;100199.56;5092279;28;20067;-74
2021/01/13 02:26:11;;;;;;;7.40;3.20;;;;;;;19.57;38.60;100193.47;5091905;28;20040;-76
2021/01/13 02:28:44;;;;;;;5.85;3.03;;;;;;;19.57;38.82;100198.72;5092307;28;20028;-73
2021/01/13 02:31:30;;;;;;;5.18;3.00;;;;;;;19.58;38.44;100194.31;5093575;28;20554;-76
2021/01/13 02:34:16;;;;;;;6.03;2.95;;;;;;;19.58;38.57;100196.97;5091967;28;20036;-76
2021/01/13 02:37:19;;;;;;;7.10;3.63;;;;;;;19.56;38.46;100204.00;5108951;28;20041;-73
2021/01/13 02:39:46;;;;;;;7.07;3.70;;;;;;;19.57;38.34;100201.38;5112160;28;20024;-73
2021/01/13 02:42:27;;;;;;;6.75;3.15;;;;;;;19.56;38.32;100198.75;5112375;28;20031;-75
2021/01/13 02:45:04;;;;;;;7.13;3.30;;;;;;;19.58;38.70;100204.84;5112132;28;20060;-72
2021/01/13 02:48:03;;;;;;;6.00;3.33;;;;;;;19.58;38.30;100213.63;5097671;28;20042;-75
2021/01/13 02:50:34;;;;;;;5.95;2.88;;;;;;;19.57;38.58;100204.00;5104047;28;20106;-75
2021/01/13 02:53:22;;;;;;;6.65;3.05;;;;;;;19.56;38.58;100204.00;5093478;28;20388;-73
2021/01/13 02:55:48;;;;;;;8.82;3.30;;;;;;;19.57;38.45;100203.09;5083058;28;20050;-75
2021/01/13 02:58:23;;;;;;;4.72;2.72;;;;;;;19.57;38.66;100213.63;5112343;28;20102;-76
2021/01/13 03:00:49;;;;;;;5.00;2.65;;;;;;;19.57;38.27;100209.25;5112186;28;20122;-74
2021/01/13 03:03:18;;;;;;;6.50;2.95;;;;;;;19.56;38.49;100204.00;5111597;28;20464;-74
2021/01/13 03:05:47;;;;;;;5.85;3.20;;;;;;;19.57;38.46;100200.47;5111887;28;20074;-76
2021/01/13 03:08:14;;;;;;;6.03;3.30;;;;;;;19.59;38.38;100211.84;5111532;28;20042;-73
2021/01/13 03:10:47;;;;;;;8.05;3.38;;;;;;;19.57;38.46;100217.13;5111845;28;20503;-73
2021/01/13 03:13:13;;;;;;;5.88;2.75;;;;;;;19.58;38.63;100217.97;5112188;28;20027;-75
2021/01/13 03:15:39;;;;;;;6.55;3.05;;;;;;;19.57;38.33;100216.25;5111791;28;20039;-76
2021/01/13 03:18:07;;;;;;;6.32;3.10;;;;;;;19.56;38.39;100210.16;5110850;28;20427;-74
2021/01/13 03:20:38;;;;;;;7.57;3.10;;;;;;;19.56;38.41;100219.78;5111461;28;20024;-74
2021/01/13 03:23:15;;;;;;;7.05;2.85;;;;;;;19.58;38.49;100225.88;5115465;28;20088;-76
2021/01/13 03:26:03;;;;;;;7.28;3.50;;;;;;;19.57;38.47;100229.41;5114624;28;20068;-72
2021/01/13 03:28:34;;;;;;;5.97;3.17;;;;;;;19.57;38.33;100224.13;5116299;28;20039;-73
2021/01/13 03:31:02;;;;;;;5.53;2.60;;;;;;;19.56;38.70;100223.28;5115976;28;20027;-75
2021/01/13 03:34:05;;;;;;;5.13;2.80;;;;;;;19.55;38.41;100229.44;5116138;28;20277;-74
2021/01/13 03:37:18;;;;;;;5.00;2.60;;;;;;;19.56;38.46;100230.28;5115707;28;20039;-76
2021/01/13 03:39:44;;;;;;;6.72;3.05;;;;;;;19.57;38.47;100230.28;5095687;28;20062;-74
2021/01/13 03:42:10;;;;;;;5.03;2.60;;;;;;;19.57;38.31;100224.13;5116025;28;20412;-74
2021/01/13 03:44:37;;;;;;;4.60;2.97;;;;;;;19.59;38.44;100230.25;5115933;28;20036;-74
2021/01/13 03:47:31;;;;;;;6.85;2.58;;;;;;;19.55;38.44;100221.56;5115332;28;20093;-77
2021/01/13 03:50:14;;;;;;;8.05;3.78;;;;;;;19.57;38.37;100238.16;5115128;28;20031;-76
2021/01/13 03:52:47;;;;;;;6.43;2.67;;;;;;;19.55;38.43;100237.31;5115405;28;20035;-75
2021/01/13 03:55:15;;;;;;;7.95;3.08;;;;;;;19.57;38.39;100232.03;5115258;28;20028;-76
2021/01/13 03:57:47;;;;;;;7.10;2.83;;;;;;;19.57;38.13;100229.41;5114016;28;20402;-74
2021/01/13 04:00:14;;;;;;;5.10;2.55;;;;;;;19.55;38.34;100224.19;5115499;28;20513;-74
2021/01/13 04:03:07;;;;;;;6.25;3.25;;;;;;;19.56;38.36;100220.66;5115646;28;20044;-72
2021/01/13 04:05:40;;;;;;;7.15;2.70;;;;;;;19.58;38.16;100223.25;5114791;28;20043;-74
2021/01/13 04:08:05;;;;;;;3.97;2.50;;;;;;;19.57;38.27;100225.03;5113794;28;20107;-75
2021/01/13 04:10:31;;;;;;;5.20;2.83;;;;;;;19.58;38.33;100220.63;5093159;28;20120;-76
2021/01/13 04:13:22;;;;;;;6.50;2.53;;;;;;;19.58;38.28;100220.63;5097703;28;20024;-72
2021/01/13 04:15:50;;;;;;;4.93;2.53;;;;;;;19.56;38.31;100217.16;5085600;28;20586;-73
2021/01/13 04:18:18;;;;;;;5.20;2.33;;;;;;;19.57;38.36;100226.75;5094767;28;20047;-73
2021/01/13 04:20:44;;;;;;;5.80;2.60;;;;;;;19.57;38.38;100225.03;5113454;28;20676;-75
2021/01/13 04:23:09;;;;;;;6.40;2.67;;;;;;;19.57;38.30;100217.13;5114881;28;20035;-74
2021/01/13 04:25:35;;;;;;;4.85;2.80;;;;;;;19.56;38.27;100219.78;5114380;28;20067;-75
2021/01/13 04:28:01;;;;;;;8.18;2.92;;;;;;;19.57;38.45;100213.63;5115124;28;20035;-75
2021/01/13 04:30:27;;;;;;;5.97;2.55;;;;;;;19.55;38.28;100213.66;5113935;28;20126;-76
2021/01/13 04:32:56;;;;;;;7.05;2.88;;;;;;;19.55;38.37;100220.66;5114174;28;20028;-73
2021/01/13 04:35:24;;;;;;;5.60;2.65;;;;;;;19.55;38.34;100218.91;5113123;28;20062;-74
2021/01/13 04:37:55;;;;;;;8.80;3.13;;;;;;;19.53;38.53;100210.19;5113543;28;20664;-75
2021/01/13 04:40:28;;;;;;;6.20;2.63;;;;;;;19.57;38.33;100206.63;5114596;28;20548;-73
2021/01/13 04:43:01;;;;;;;4.80;2.28;;;;;;;19.55;38.38;100204.91;5114834;28;20090;-74
2021/01/13 04:45:38;;;;;;;6.77;2.77;;;;;;;19.56;38.40;100204.88;5114567;28;20095;-73
2021/01/13 04:48:09;;;;;;;6.40;2.58;;;;;;;19.58;37.97;100197.84;5114250;28;20036;-75
2021/01/13 04:50:53;;;;;;;5.00;2.63;;;;;;;19.56;38.06;100204.88;5112575;28;20023;-77
2021/01/13 04:53:20;;;;;;;5.53;2.30;;;;;;;19.56;38.30;100206.63;5114316;28;20034;-73
2021/01/13 04:55:56;;;;;;;5.53;2.70;;;;;;;19.54;38.24;100203.19;5113061;28;20042;-75
2021/01/13 04:58:27;;;;;;;5.20;2.42;;;;;;;19.53;38.30;100196.19;5114550;28;20028;-74
2021/01/13 05:01:21;;;;;;;6.13;2.88;;;;;;;19.54;38.18;100211.06;5113974;28;20499;-74
2021/01/13 05:03:55;;;;;;;5.07;2.58;;;;;;;19.52;38.32;100212.88;5090312;28;20078;-73
2021/01/13 05:06:48;;;;;;;6.22;3.08;;;;;;;19.53;38.66;100201.47;5113995;28;20051;-74
2021/01/13 05:09:14;;;;;;;5.40;3.10;;;;;;;19.52;38.33;100205.84;5113807;28;20038;-75
2021/01/13 05:11:42;;;;;;;5.82;2.60;;;;;;;19.52;38.38;100200.56;5114161;28;20563;-75
2021/01/13 05:14:12;;;;;;;4.97;2.95;;;;;;;19.50;38.44;100206.75;5114185;28;20034;-75
2021/01/13 05:16:50;;;;;;;4.18;2.65;;;;;;;19.51;38.41;100217.22;5114102;28;20038;-74
2021/01/13 05:19:41;;;;;;;8.15;3.05;;;;;;;19.50;38.24;100209.38;5113100;28;20446;-75
2021/01/13 05:22:08;;;;;;;6.32;3.03;;;;;;;19.52;38.26;100228.63;5113849;28;20038;-76
2021/01/13 05:24:39;;;;;;;7.03;2.78;;;;;;;19.52;38.27;100211.09;5113362;28;20031;-74
2021/01/13 05:27:37;;;;;;;5.97;2.80;;;;;;;19.52;38.07;100212.88;5113942;28;20403;-74
2021/01/13 05:30:09;;;;;;;6.68;2.83;;;;;;;19.52;38.33;100203.19;5112998;28;20039;-74
2021/01/13 05:32:39;;;;;;;5.97;2.53;;;;;;;19.54;38.39;100211.94;5112368;28;20485;-76
2021/01/13 05:35:06;;;;;;;7.07;2.67;;;;;;;19.56;38.43;100204.00;5113453;28;20047;-73
2021/01/13 05:37:40;;;;;;;6.38;2.28;;;;;;;19.55;38.13;100203.16;5113740;28;20056;-75
2021/01/13 05:40:06;;;;;;;5.72;2.90;;;;;;;19.56;38.19;100215.41;5113467;28;20107;-75
2021/01/13 05:42:32;;;;;;;4.78;2.47;;;;;;;19.55;38.27;100213.66;5113175;27;20047;-73
2021/01/13 05:44:58;;;;;;;6.18;2.75;;;;;;;19.55;37.92;100208.41;5112037;28;20837;-73
2021/01/13 05:47:51;;;;;;;5.13;2.47;;;;;;;19.55;37.96;100199.63;5113350;28;20036;-73
2021/01/13 05:50:19;;;;;;;6.50;2.92;;;;;;;19.55;38.15;100191.75;5105776;28;20113;-73
2021/01/13 05:52:50;;;;;;;5.63;3.03;;;;;;;19.56;38.27;100198.75;5093013;28;20040;-74
2021/01/13 05:55:18;;;;;;;4.95;2.05;;;;;;;19.55;38.30;100186.50;5074479;28;20068;-75
2021/01/13 05:57:58;;;;;;;7.72;2.60;;;;;;;19.57;38.12;100192.59;5092911;28;20565;-73
2021/01/13 06:00:25;;;;;;;6.80;2.78;;;;;;;19.56;38.49;100193.50;5092856;28;20082;-75
2021/01/13 06:02:59;;;;;;;4.85;2.92;;;;;;;19.55;37.93;100195.25;5093748;28;20044;-75
2021/01/13 06:05:29;;;;;;;5.60;2.92;;;;;;;19.55;38.21;100192.63;5100759;28;20054;-74
2021/01/13 06:08:01;;;;;;;4.90;3.17;;;;;;;19.55;38.20;100195.25;5113028;28;20028;-75
2021/01/13 06:10:33;;;;;;;9.48;2.85;;;;;;;19.55;38.09;100191.75;5112933;28;20041;-75
2021/01/13 06:13:01;;;;;;;7.78;2.97;;;;;;;19.54;38.09;100190.91;5112949;28;20038;-76
2021/01/13 06:15:28;;;;;;;6.18;2.78;;;;;;;19.55;38.32;100187.38;5112673;28;20035;-72
2021/01/13 06:17:55;;;;;;;7.40;3.05;;;;;;;19.55;38.24;100191.75;5112595;28;20039;-74
2021/01/13 06:20:24;;;;;;;5.88;2.85;;;;;;;19.54;38.19;100184.78;5112552;28;20445;-75
2021/01/13 06:22:51;;;;;;;6.20;2.92;;;;;;;19.54;38.19;100197.94;5112689;28;20074;-75
2021/01/13 06:25:28;;;;;;;4.93;2.75;;;;;;;19.56;38.10;100198.75;5112252;28;20036;-73
2021/01/13 06:27:57;;;;;;;7.45;3.45;;;;;;;19.58;38.22;100196.97;5108947;28;20080;-77
2021/01/13 06:30:27;;;;;;;4.95;2.70;;;;;;;19.56;38.19;100197.00;5109756;28;20580;-75
2021/01/13 06:33:01;;;;;;;6.90;2.80;;;;;;;19.58;38.05;100200.47;5110141;28;20579;-76
2021/01/13 06:35:42;;;;;;;6.25;3.28;;;;;;;19.56;38.05;100196.13;5112505;28;20039;-76
2021/01/13 06:38:40;;;;;;;6.43;3.10;;;;;;;19.58;37.94;100199.59;5109586;28;20416;-73
2021/01/13 06:41:06;;;;;;;7.97;2.90;;;;;;;19.59;37.99;100203.94;5098895;28;20432;-73
2021/01/13 06:43:31;;;;;;;9.23;3.38;;;;;;;19.60;38.21;100195.16;5099061;28;20036;-72
2021/01/13 06:45:57;;;;;;;9.38;3.10;;;;;;;19.60;38.29;100198.69;5094194;28;20446;-73
2021/01/13 06:48:28;;;;;;;9.77;3.15;;;;;;;19.61;38.49;100189.03;5090487;28;20036;-73
2021/01/13 06:51:00;;;;;;;6.72;3.45;;;;;;;19.63;38.30;100182.81;5098410;28;20052;-74
2021/01/13 06:53:33;;;;;;;5.70;2.80;;;;;;;19.68;38.38;100195.91;5099164;28;20020;-74
2021/01/13 06:56:02;;;;;;;10.55;3.90;;;;;;;19.67;38.44;100196.81;5110295;27;20445;-74
2021/01/13 06:58:27;;;;;;;6.57;3.30;;;;;;;19.67;38.66;100191.53;5098794;28;20153;-74
2021/01/13 07:01:01;;;;;;;10.70;3.17;;;;;;;19.69;38.58;100184.50;5102565;28;20040;-73
2021/01/13 07:03:31;;;;;;;10.25;4.00;;;;;;;19.73;38.39;100201.06;5094233;28;20548;-73
2021/01/13 07:06:00;;;;;;;8.93;4.22;;;;;;;19.73;38.59;100204.56;5095628;28;20055;-76
2021/01/13 07:08:26;;;;;;;7.22;3.70;;;;;;;19.74;38.71;100192.28;5100691;28;20064;-73
2021/01/13 07:11:04;;;;;;;7.30;3.72;;;;;;;19.74;38.65;100187.88;5079968;28;20097;-74
2021/01/13 07:13:32;;;;;;;7.63;3.70;;;;;;;19.75;38.74;100189.63;5094486;28;20508;-75
2021/01/13 07:16:01;;;;;;;10.25;4.10;;;;;;;19.78;38.61;100197.44;5102489;28;20031;-73
2021/01/13 07:18:27;;;;;;;10.23;3.50;;;;;;;19.82;38.41;100200.03;5095368;28;20081;-74
2021/01/13 07:20:54;;;;;;;8.65;3.63;;;;;;;19.82;38.59;100195.63;5102891;28;20031;-78
2021/01/13 07:23:21;;;;;;;8.20;3.67;;;;;;;19.82;38.67;100200.88;5096516;28;20040;-74
2021/01/13 07:25:48;;;;;;;17.30;3.95;;;;;;;19.82;38.69;100200.03;5106905;28;20032;-74
2021/01/13 07:28:15;;;;;;;10.10;4.10;;;;;;;19.82;38.82;100202.66;5109056;28;20032;-75
2021/01/13 07:30:42;;;;;;;11.57;3.75;;;;;;;19.80;38.73;100207.94;5110964;28;20032;-72
2021/01/13 07:33:13;;;;;;;10.68;4.47;;;;;;;19.77;38.69;100211.50;5109573;28;20043;-75
2021/01/13 07:35:47;;;;;;;11.48;4.22;;;;;;;19.75;38.61;100210.66;5110422;28;20039;-74
2021/01/13 07:38:16;;;;;;;;;;;;;;;19.72;38.59;100210.69;5109507;28;20067;-74
2021/01/13 07:41:07;;;;;;;7.55;3.28;;;;;;;19.70;38.56;100207.22;5111068;28;19912;-76
2021/01/13 07:43:35;;;;;;;7.25;3.72;;;;;;;19.72;38.46;100204.59;5111174;27;20062;-74
2021/01/13 07:46:03;;;;;;;9.48;4.03;;;;;;;19.70;38.65;100211.63;5106491;28;20058;-76
2021/01/13 07:48:28;;;;;;;8.98;4.13;;;;;;;19.70;38.62;100209.00;5111552;28;20066;-75
2021/01/13 07:51:05;;;;;;;9.27;3.70;;;;;;;19.68;38.63;100211.69;5111120;28;20500;-75
2021/01/13 07:53:37;;;;;;;9.55;3.38;;;;;;;19.68;38.56;100211.69;5111261;28;20040;-75
2021/01/13 07:56:03;;;;;;;10.55;3.72;;;;;;;19.68;38.48;100219.56;5098846;28;20020;-73
2021/01/13 07:58:31;;;;;;;8.98;3.45;;;;;;;19.71;38.50;100219.47;5090886;28;20036;-75
2021/01/13 08:01:08;;;;;;;10.30;4.82;;;;;;;19.72;38.16;100220.38;5102755;28;20084;-71
2021/01/13 08:04:11;;;;;;;8.27;4.20;;;;;;;19.66;38.05;100226.63;5098838;28;20146;-73
2021/01/13 08:06:47;;;;;;;14.25;5.65;;;;;;;19.63;37.93;100209.13;5106992;28;20059;-73
2021/01/13 08:09:18;;;;;;;8.73;4.43;;;;;;;19.62;37.75;100209.16;5103968;28;20056;-73
2021/01/13 08:12:13;;;;;;;12.13;4.88;;;;;;;19.62;37.85;100220.53;5115202;28;20028;-72
2021/01/13 08:14:59;;;;;;;9.57;3.90;;;;;;;19.64;37.93;100220.50;5115007;28;20553;-73
2021/01/13 08:18:33;;;;;;;9.85;5.30;;;;;;;19.63;37.68;100218.78;5094600;28;20127;-76
2021/01/13 08:21:16;;;;;;;10.90;4.80;;;;;;;19.64;37.91;100223.16;4998328;28;20417;-75
2021/01/13 08:23:51;;;;;;;12.57;5.63;;;;;;;19.66;38.03;100221.34;5075885;28;20172;-73
2021/01/13 08:26:18;;;;;;;12.13;4.72;;;;;;;19.67;37.95;100223.09;5098181;28;20047;-74
2021/01/13 08:28:48;;;;;;;9.35;5.00;;;;;;;19.69;37.85;100231.81;5099009;28;20038;-75
2021/01/13 08:31:25;;;;;;;9.82;4.85;;;;;;;19.70;37.88;100220.38;5103271;28;20032;-73
2021/01/13 08:34:05;;;;;;;8.13;4.70;;;;;;;19.70;37.88;100217.75;5114416;28;20042;-75
2021/01/13 08:36:30;;;;;;;11.10;4.72;;;;;;;19.72;37.92;100204.59;5113247;28;20065;-73
2021/01/13 08:39:06;;;;;;;11.50;5.20;;;;;;;19.72;37.90;100210.69;5113740;28;20480;-73
2021/01/13 08:41:33;;;;;;;8.90;5.15;;;;;;;19.75;37.90;100220.31;5114373;28;20384;-73
2021/01/13 08:44:08;;;;;;;9.10;4.72;;;;;;;19.78;37.76;100221.13;5114524;28;20059;-75
2021/01/13 08:46:41;;;;;;;11.02;4.45;;;;;;;19.80;37.79;100228.13;5113111;28;20122;-76
2021/01/13 08:49:07;;;;;;;10.05;4.55;;;;;;;19.81;37.71;100235.09;5114460;28;20040;-72
2021/01/13 08:51:34;;;;;;;9.50;4.63;;;;;;;19.83;37.50;100218.38;5113006;28;20438;-76
2021/01/13 08:54:32;;;;;;;9.15;4.80;;;;;;;19.91;37.65;100216.53;5114014;28;20045;-74
2021/01/13 08:56:59;;;;;;;10.52;4.80;;;;;;;19.97;38.15;100206.75;5090147;28;20085;-74
2021/01/13 08:59:40;;;;;;;8.90;5.00;;;;;;;20.07;37.43;100196.03;5108692;28;20118;-73
2021/01/13 09:02:11;;;;;;;12.30;4.93;;;;;;;20.20;37.56;100201.00;5111198;28;20419;-72
2021/01/13 09:04:48;;;;;;;6.82;3.90;;;;;;;20.47;37.00;100209.22;5113768;28;20055;-74
2021/01/13 09:07:15;;;;;;;10.88;5.20;;;;;;;20.61;36.74;100199.25;5109754;28;20382;-74
2021/01/13 09:10:04;;;;;;;12.18;5.28;;;;;;;21.36;36.14;100198.31;5108897;28;20046;-73
2021/01/13 09:12:34;;;;;;;11.90;5.32;;;;;;;21.82;35.10;100204.16;5112825;28;20053;-76
2021/01/13 09:15:08;;;;;;;11.80;5.43;;;;;;;21.99;35.11;100210.72;5106155;28;20091;-73
2021/01/13 09:17:37;;;;;;;10.50;4.82;;;;;;;22.23;34.73;100200.34;5113905;28;20871;-74
2021/01/13 09:20:05;;;;;;;8.35;4.28;;;;;;;22.08;34.76;100191.13;5113430;28;20038;-74
2021/01/13 09:22:48;;;;;;;10.05;5.05;;;;;;;21.40;35.30;100201.75;5111468;28;20385;-74
2021/01/13 09:25:17;;;;;;;10.32;5.18;;;;;;;21.04;36.13;100199.16;5112334;28;20039;-74
2021/01/13 09:27:46;;;;;;;11.02;4.82;;;;;;;20.81;36.53;100190.03;5113944;28;20036;-73
2021/01/13 09:30:27;;;;;;;7.35;4.30;;;;;;;20.64;36.54;100198.31;5106618;28;20088;-75
2021/01/13 09:32:56;;;;;;;11.10;5.43;;;;;;;20.55;36.75;100199.38;5095979;28;20467;-74
2021/01/13 09:35:26;;;;;;;7.70;4.55;;;;;;;20.46;37.07;100189.91;5113626;28;20086;-72
2021/01/13 09:37:54;;;;;;;12.05;5.18;;;;;;;20.44;37.04;100201.41;5113596;28;20040;-74
2021/01/13 09:40:21;;;;;;;8.68;4.68;;;;;;;20.41;37.10;100206.72;5113108;28;20066;-73
2021/01/13 09:42:56;;;;;;;8.50;5.18;;;;;;;20.41;37.10;100198.81;5112487;27;20030;-73
2021/01/13 09:45:22;;;;;;;9.35;4.75;;;;;;;20.39;37.35;100194.47;5112813;28;20040;-75
2021/01/13 09:47:49;;;;;;;10.48;4.53;;;;;;;20.40;37.10;100187.41;5092998;28;20075;-76
2021/01/13 09:50:20;;;;;;;8.75;4.43;;;;;;;20.39;37.29;100181.31;5092944;28;20049;-73
2021/01/13 09:52:47;;;;;;;10.27;4.28;;;;;;;20.38;37.23;100187.47;5092913;28;20040;-74
2021/01/13 09:55:14;;;;;;;10.30;4.97;;;;;;;20.38;37.50;100195.34;5097376;28;20042;-74
2021/01/13 09:57:39;;;;;;;7.78;4.57;;;;;;;20.36;37.10;100194.53;5101864;28;20035;-73
2021/01/13 10:00:06;;;;;;;8.05;4.50;;;;;;;20.37;37.09;100188.38;5112908;28;20095;-77
2021/01/13 10:02:33;;;;;;;8.25;4.25;;;;;;;20.39;37.09;100196.25;5111255;28;20042;-74
2021/01/13 10:04:59;;;;;;;6.53;3.33;;;;;;;20.45;36.98;100203.97;5105174;28;20035;-75
2021/01/13 10:07:30;;;;;;;8.32;4.20;;;;;;;20.49;36.76;100203.03;5111214;28;20178;-76
2021/01/13 10:09:57;;;;;;;9.25;4.07;;;;;;;20.52;36.67;100200.31;5107955;28;20027;-75
2021/01/13 10:12:35;;;;;;;10.07;4.28;;;;;;;20.62;36.64;100189.56;5108362;28;20146;-73
2021/01/13 10:15:03;;;;;;;9.90;4.00;;;;;;;20.65;36.53;100187.72;5107465;28;20396;-73
2021/01/13 10:17:29;;;;;;;9.55;3.55;;;;;;;20.71;36.46;100186.72;5108144;28;20035;-75
2021/01/13 10:19:54;;;;;;;6.28;3.15;;;;;;;20.76;36.54;100184.03;5108447;28;20043;-74
2021/01/13 10:22:24;;;;;;;7.25;3.63;;;;;;;20.85;36.37;100181.16;5108085;28;20046;-74
2021/01/13 10:24:49;;;;;;;11.32;3.60;;;;;;;20.86;36.40;100184.66;5107015;28;20101;-74
2021/01/13 10:27:16;;;;;;;7.57;3.42;;;;;;;20.86;36.38;100185.53;5108099;28;20043;-72
2021/01/13 10:29:46;;;;;;;6.93;3.38;;;;;;;20.83;36.28;100175.94;5107968;28;20035;-73
2021/01/13 10:32:14;;;;;;;7.85;3.33;;;;;;;20.75;36.21;100172.59;5107023;28;20036;-74
2021/01/13 10:34:40;;;;;;;8.55;3.67;;;;;;;20.68;36.23;100156.06;5106138;28;20058;-73
2021/01/13 10:37:05;;;;;;;8.82;3.10;;;;;;;20.66;36.02;100157.00;5107544;28;20704;-74
2021/01/13 10:39:31;;;;;;;6.65;3.05;;;;;;;20.65;36.09;100160.53;5107466;28;20049;-74
2021/01/13 10:42:05;;;;;;;6.80;2.80;;;;;;;20.62;36.14;100164.13;5108167;28;20981;-75
2021/01/13 10:44:31;;;;;;;7.15;2.97;;;;;;;20.60;36.28;100155.38;5105988;28;20036;-76
2021/01/13 10:47:01;;;;;;;7.75;2.58;;;;;;;20.56;36.03;100156.34;5111877;28;20042;-73
2021/01/13 10:49:29;;;;;;;5.55;2.63;;;;;;;20.59;36.04;100158.03;5112134;27;20104;-73
2021/01/13 10:51:59;;;;;;;6.88;3.13;;;;;;;20.63;36.18;100162.34;5111983;28;20499;-74
2021/01/13 10:54:28;;;;;;;5.57;2.22;;;;;;;20.59;36.21;100151.03;5109190;28;20407;-75
2021/01/13 10:56:59;;;;;;;5.70;2.60;;;;;;;20.58;36.16;100162.47;5109521;28;20509;-72
2021/01/13 10:59:25;;;;;;;8.68;3.40;;;;;;;20.57;36.19;100157.22;5109237;28;20514;-75
2021/01/13 11:01:53;;;;;;;6.07;2.45;;;;;;;20.56;36.21;100153.72;5111651;28;20040;-73
2021/01/13 11:04:29;;;;;;;7.45;2.83;;;;;;;20.58;36.05;100146.66;5108854;28;20036;-74
2021/01/13 11:07:03;;;;;;;9.15;2.65;;;;;;;20.56;36.15;100144.94;5111183;28;20054;-73
2021/01/13 11:09:29;;;;;;;3.95;1.98;;;;;;;20.57;36.24;100142.28;5110059;28;20035;-76
2021/01/13 11:11:55;;;;;;;5.32;2.55;;;;;;;20.60;36.46;100144.84;5111834;28;20032;-74
2021/01/13 11:14:29;;;;;;;6.03;2.45;;;;;;;20.63;36.22;100138.66;5111560;28;20101;-75
2021/01/13 11:17:04;;;;;;;5.20;2.40;;;;;;;20.62;36.29;100139.53;5111979;28;20097;-74
2021/01/13 11:19:30;;;;;;;7.70;2.70;;;;;;;20.63;36.08;100128.97;5111218;28;20096;-74
2021/01/13 11:21:56;;;;;;;4.82;2.42;;;;;;;20.61;36.19;100128.16;5110993;28;20117;-73
2021/01/13 11:24:36;;;;;;;9.95;2.90;;;;;;;20.60;36.02;100128.19;5111232;28;20122;-73
2021/01/13 11:27:29;;;;;;;5.53;2.60;;;;;;;20.65;35.89;100124.53;5111654;28;20119;-75
2021/01/13 11:29:55;;;;;;;7.13;2.93;;;;;;;20.66;36.10;100120.16;5108769;28;20155;-74
2021/01/13 11:32:31;;;;;;;7.65;2.50;;;;;;;20.62;35.82;100116.72;5111244;28;20051;-77
2021/01/13 11:34:57;;;;;;;10.57;2.80;;;;;;;20.64;36.07;100119.31;5110737;28;20028;-75
2021/01/13 11:37:40;;;;;;;5.22;2.10;;;;;;;20.64;36.08;100114.91;5108828;28;20047;-73
2021/01/13 11:40:07;;;;;;;6.70;2.67;;;;;;;20.74;35.87;100101.53;5108815;28;20043;-72
2021/01/13 11:42:57;;;;;;;6.93;2.15;;;;;;;20.78;36.01;100096.16;5112131;28;20059;-76
2021/01/13 11:45:44;;;;;;;6.95;3.00;;;;;;;20.78;35.92;100096.16;5114912;28;20027;-75
2021/01/13 11:48:14;;;;;;;6.72;2.55;;;;;;;20.74;35.56;100089.22;5115112;28;20039;-74